Time;durP1;ratioP1;P1;durP2;ratioP2;P2;SDS_P1;SDS_P2;PMS_P1;PMS_P2;Temp;Humidity;BMP_temperature;BMP_pressure;BME280_temperature;BME280_humidity;BME280_pressure;Samples;Min_cycle;Max_cycle;Signal;HPM_P1;HPM_P2
2021/05/31 00:01:32;;;;;;;;;;;;;;;20.65;46.99;100538.02;1679406;85;20294;-78
2021/05/31 00:03:59;;;;;;;;;;;;;;;20.62;47.15;100541.20;1679887;85;20309;-77
2021/05/31 00:06:25;;;;;;;;;;;;;;;20.61;47.18;100537.32;1680262;85;20304;-77
2021/05/31 00:08:51;;;;;;;;;;;;;;;20.59;47.19;100536.19;1679668;85;20301;-77
2021/05/31 00:11:20;;;;;;;;;;;;;;;20.58;47.14;100541.34;1679552;85;20300;-78
2021/05/31 00:13:48;;;;;;;;;;;;;;;20.54;47.16;100544.19;1676222;84;20582;-77
2021/05/31 00:16:15;;;;;;;;;;;;;;;20.47;47.21;100539.28;1679617;85;20305;-78
2021/05/31 00:18:43;;;;;;;;;;;;;;;20.50;47.15;100549.23;1679590;85;20418;-77
2021/05/31 00:21:09;;;;;;;;;;;;;;;20.51;47.01;100550.06;1679805;85;20206;-77
2021/05/31 00:23:36;;;;;;;;;;;;;;;20.52;46.92;100549.83;1679543;85;20274;-77
2021/05/31 00:26:02;;;;;;;;;;;;;;;20.51;46.95;100543.27;1679397;85;20238;-77
2021/05/31 00:28:29;;;;;;;;;;;;;;;20.49;47.03;100542.66;1679505;85;20238;-77
2021/05/31 00:30:57;;;;;;;;;;;;;;;20.51;47.10;100547.34;1679482;85;20274;-76
2021/05/31 00:33:25;;;;;;;;;;;;;;;20.51;47.23;100545.45;1679621;85;22178;-76
2021/05/31 00:35:52;;;;;;;;;;;;;;;20.48;47.37;100548.64;1679419;85;20288;-78
2021/05/31 00:38:18;;;;;;;;;;;;;;;20.49;47.40;100548.11;1679349;85;20277;-77
2021/05/31 00:40:46;;;;;;;;;;;;;;;20.48;47.15;100546.41;1679439;85;20578;-77
2021/05/31 00:43:12;;;;;;;;;;;;;;;20.42;47.09;100538.59;1679936;85;20289;-77
2021/05/31 00:45:38;;;;;;;;;;;;;;;20.41;47.00;100543.73;1679906;85;20611;-77
2021/05/31 00:48:05;;;;;;;;;;;;;;;20.39;46.81;100538.19;1679986;85;20178;-78
2021/05/31 00:50:30;;;;;;;;;;;;;;;20.38;46.66;100539.25;1678467;85;20656;-77
2021/05/31 00:52:58;;;;;;;;;;;;;;;20.38;46.68;100535.17;1678895;85;20304;-77
2021/05/31 00:55:24;;;;;;;;;;;;;;;20.40;46.51;100535.27;1678725;85;20799;-77
2021/05/31 00:57:50;;;;;;;;;;;;;;;20.40;46.39;100529.00;1680514;85;20245;-77
2021/05/31 01:00:16;;;;;;;;;;;;;;;20.41;46.27;100532.84;1680723;85;20576;-76
2021/05/31 01:02:43;;;;;;;;;;;;;;;20.42;46.23;100532.31;1680777;85;20627;-77
2021/05/31 01:05:10;;;;;;;;;;;;;;;20.42;46.19;100532.31;1681044;85;20206;-77
2021/05/31 01:07:41;;;;;;;;;;;;;;;20.42;46.18;100534.50;1681287;85;20229;-77
2021/05/31 01:10:14;;;;;;;;;;;;;;;20.43;46.08;100532.08;1681101;85;20261;-76
2021/05/31 01:12:43;;;;;;;;;;;;;;;20.42;45.98;100526.88;1680925;85;20214;-77
2021/05/31 01:15:21;;;;;;;;;;;;;;;20.42;46.07;100526.88;1680672;85;20290;-77
2021/05/31 01:17:55;;;;;;;;;;;;;;;20.38;45.94;100525.11;1681125;85;20225;-77
2021/05/31 01:20:56;;;;;;;;;;;;;;;20.39;45.96;100524.58;1680837;85;20218;-78
2021/05/31 01:23:24;;;;;;;;;;;;;;;20.40;45.85;100524.91;1680889;85;20646;-77
2021/05/31 01:26:14;;;;;;;;;;;;;;;20.43;45.79;100524.45;1680911;85;20598;-77
2021/05/31 01:29:00;;;;;;;;;;;;;;;20.44;45.96;100523.42;1681310;85;20201;-76
2021/05/31 01:31:51;;;;;;;;;;;;;;;20.46;45.97;100518.58;1680856;85;20214;-77
2021/05/31 01:34:22;;;;;;;;;;;;;;;20.47;46.00;100514.30;1679446;84;20595;-78
2021/05/31 01:36:59;;;;;;;;;;;;;;;20.45;45.88;100510.95;1660360;85;20574;-78
2021/05/31 01:39:26;;;;;;;;;;;;;;;20.43;45.69;100514.39;1680599;85;20721;-77
2021/05/31 01:41:53;;;;;;;;;;;;;;;20.42;45.65;100514.63;1659024;85;20257;-78
2021/05/31 01:44:19;;;;;;;;;;;;;;;20.41;45.59;100519.77;1680567;85;20262;-78
2021/05/31 01:46:47;;;;;;;;;;;;;;;20.40;45.71;100519.47;1680361;85;20641;-76
2021/05/31 01:49:13;;;;;;;;;;;;;;;20.38;45.60;100513.40;1680655;85;20273;-76
2021/05/31 01:51:39;;;;;;;;;;;;;;;20.38;45.68;100517.48;1680681;85;20205;-77
2021/05/31 01:54:07;;;;;;;;;;;;;;;20.39;45.49;100513.70;1680955;85;20260;-76
2021/05/31 01:56:34;;;;;;;;;;;;;;;20.38;45.46;100513.40;1679118;85;20322;-77
2021/05/31 01:59:00;;;;;;;;;;;;;;;20.39;45.49;100513.70;1679463;85;20290;-76
2021/05/31 02:01:26;;;;;;;;;;;;;;;20.40;45.60;100516.75;1679142;85;20248;-76
2021/05/31 02:03:52;;;;;;;;;;;;;;;20.41;45.85;100520.60;1679088;85;20451;-77
2021/05/31 02:06:19;;;;;;;;;;;;;;;20.42;46.05;100518.71;1679585;85;20253;-76
2021/05/31 02:08:45;;;;;;;;;;;;;;;20.43;46.21;100512.20;1679666;83;20218;-76
2021/05/31 02:11:30;;;;;;;;;;;;;;;20.42;46.27;100514.63;1674693;84;20262;-76
2021/05/31 02:13:59;;;;;;;;;;;;;;;20.43;46.05;100520.37;1673704;84;20866;-76
2021/05/31 02:16:28;;;;;;;;;;;;;;;20.40;45.84;100514.86;1673251;85;20258;-76
2021/05/31 02:18:56;;;;;;;;;;;;;;;20.40;45.72;100522.19;1673971;84;20555;-76
2021/05/31 02:21:22;;;;;;;;;;;;;;;20.40;45.78;100531.72;1676563;83;20201;-77
2021/05/31 02:23:49;;;;;;;;;;;;;;;20.39;45.67;100536.83;1678063;85;20221;-77
2021/05/31 02:26:17;;;;;;;;;;;;;;;20.35;45.68;100534.23;1678111;85;20308;-76
2021/05/31 02:28:47;;;;;;;;;;;;;;;20.35;45.68;100534.23;1679316;85;20265;-76
2021/05/31 02:31:16;;;;;;;;;;;;;;;20.35;45.77;100530.16;1679208;85;20268;-76
2021/05/31 02:33:45;;;;;;;;;;;;;;;20.43;45.90;100527.17;1679065;85;20706;-76
2021/05/31 02:36:11;;;;;;;;;;;;;;;20.39;46.19;100525.94;1679262;85;20665;-76
2021/05/31 02:38:38;;;;;;;;;;;;;;;20.36;46.47;100523.16;1679321;85;20293;-76
2021/05/31 02:41:05;;;;;;;;;;;;;;;20.34;46.48;100523.89;1679247;85;20262;-76
2021/05/31 02:43:30;;;;;;;;;;;;;;;20.37;46.40;100527.53;1679485;85;20338;-76
2021/05/31 02:45:57;;;;;;;;;;;;;;;20.37;46.55;100529.42;1679327;85;20254;-76
2021/05/31 02:48:23;;;;;;;;;;;;;;;20.37;46.71;100529.42;1679792;85;20296;-77
2021/05/31 02:50:50;;;;;;;;;;;;;;;20.37;46.71;100537.06;1680551;85;20281;-78
2021/05/31 02:53:15;;;;;;;;;;;;;;;20.38;46.68;100542.80;1681149;85;20292;-78
2021/05/31 02:55:42;;;;;;;;;;;;;;;20.38;46.49;100548.23;1679955;85;20213;-78
2021/05/31 02:58:11;;;;;;;;;;;;;;;20.41;46.48;100546.98;1679754;85;20298;-77
2021/05/31 03:00:36;;;;;;;;;;;;;;;20.40;46.59;100539.34;1679346;85;20438;-77
2021/05/31 03:03:02;;;;;;;;;;;;;;;20.41;46.71;100539.64;1679600;85;20278;-77
2021/05/31 03:05:29;;;;;;;;;;;;;;;20.39;46.86;100540.38;1679192;85;20567;-77
2021/05/31 03:07:56;;;;;;;;;;;;;;;20.39;46.95;100538.19;1679135;85;20329;-76
2021/05/31 03:10:23;;;;;;;;;;;;;;;20.39;47.01;100547.17;1679444;85;20625;-77
2021/05/31 03:12:50;;;;;;;;;;;;;;;20.40;47.10;100548.04;1679327;85;20611;-76
2021/05/31 03:15:17;;;;;;;;;;;;;;;20.40;47.13;100553.48;1675293;85;20309;-77
2021/05/31 03:17:47;;;;;;;;;;;;;;;20.37;47.15;100552.55;1679633;85;20265;-77
2021/05/31 03:20:14;;;;;;;;;;;;;;;20.38;47.16;100552.84;1679709;85;20260;-77
2021/05/31 03:22:40;;;;;;;;;;;;;;;20.37;47.12;100552.02;1679007;85;20258;-77
2021/05/31 03:25:07;;;;;;;;;;;;;;;20.36;46.88;100549.53;1679685;85;20250;-77
2021/05/31 03:27:33;;;;;;;;;;;;;;;20.36;46.93;100546.81;1679673;85;20333;-77
2021/05/31 03:29:58;;;;;;;;;;;;;;;20.37;47.06;100545.22;1679375;85;20233;-77
2021/05/31 03:32:24;;;;;;;;;;;;;;;20.39;47.09;100544.98;1679336;85;20289;-77
2021/05/31 03:34:50;;;;;;;;;;;;;;;20.39;47.10;100547.70;1678914;84;20217;-78
2021/05/31 03:37:16;;;;;;;;;;;;;;;20.37;47.12;100552.02;1678389;84;20218;-78
2021/05/31 03:39:43;;;;;;;;;;;;;;;20.36;47.20;100549.53;1673510;84;20266;-77
2021/05/31 03:42:09;;;;;;;;;;;;;;;20.34;47.30;100551.09;1672844;84;20259;-78
2021/05/31 03:44:35;;;;;;;;;;;;;;;20.31;47.33;100560.24;1674096;84;20556;-77
2021/05/31 03:47:02;;;;;;;;;;;;;;;20.24;47.52;100561.09;1673638;84;20294;-77
2021/05/31 03:49:28;;;;;;;;;;;;;;;20.22;47.49;100563.22;1673713;84;20503;-77
2021/05/31 03:51:54;;;;;;;;;;;;;;;20.25;47.51;100563.28;1674235;84;20226;-77
2021/05/31 03:54:20;;;;;;;;;;;;;;;20.29;47.57;100571.32;1686263;83;20257;-77
2021/05/31 03:56:49;;;;;;;;;;;;;;;20.29;47.47;100567.23;1679040;83;20230;-77
2021/05/31 03:59:15;;;;;;;;;;;;;;;20.29;47.54;100563.16;1679588;83;20254;-78
2021/05/31 04:01:41;;;;;;;;;;;;;;;20.31;47.64;100562.96;1680073;82;20702;-77
2021/05/31 04:04:07;;;;;;;;;;;;;;;20.35;47.51;100559.58;1678833;84;20209;-77
2021/05/31 04:11:52;;;;;;;;;;;;;;;20.36;47.21;100557.69;1678928;84;20594;-76
2021/05/31 04:14:19;;;;;;;;;;;;;;;20.35;47.22;100556.00;1678678;83;20266;-76
2021/05/31 04:16:50;;;;;;;;;;;;;;;20.33;47.23;100555.41;1678609;85;20333;-76
2021/05/31 04:19:18;;;;;;;;;;;;;;;20.26;47.33;100560.37;1677685;83;20262;-77
2021/05/31 04:21:46;;;;;;;;;;;;;;;20.25;47.26;100560.03;1674302;83;20163;-77
2021/05/31 04:24:12;;;;;;;;;;;;;;;20.23;47.32;100566.23;1674154;84;20282;-77
2021/05/31 04:26:38;;;;;;;;;;;;;;;20.23;47.34;100564.88;1677033;84;20293;-77
2021/05/31 04:29:06;;;;;;;;;;;;;;;20.23;47.39;100564.88;1677449;84;20305;-77
2021/05/31 04:31:33;;;;;;;;;;;;;;;20.24;47.20;100567.90;1677683;84;20296;-78
2021/05/31 04:34:02;;;;;;;;;;;;;;;20.24;47.06;100573.87;1675360;83;20254;-77
2021/05/31 04:36:28;;;;;;;;;;;;;;;20.21;46.94;100568.36;1698112;83;20541;-77
2021/05/31 04:38:55;;;;;;;;;;;;;;;20.20;46.92;100569.38;1704101;84;20285;-77
2021/05/31 04:41:21;;;;;;;;;;;;;;;20.20;46.94;100573.46;1688528;82;20792;-77
2021/05/31 04:43:47;;;;;;;;;;;;;;;20.22;46.78;100567.30;1685476;83;20219;-77
2021/05/31 04:46:14;;;;;;;;;;;;;;;20.23;46.70;100570.31;1680616;82;20354;-77
2021/05/31 04:48:40;;;;;;;;;;;;;;;20.26;46.71;100566.34;1682378;83;20237;-77
2021/05/31 04:51:06;;;;;;;;;;;;;;;20.25;46.79;100565.48;1676396;83;20297;-76
2021/05/31 04:53:34;;;;;;;;;;;;;;;20.25;46.90;100572.28;1681006;83;20305;-76
2021/05/31 04:56:02;;;;;;;;;;;;;;;20.24;46.82;100574.70;1660916;84;20265;-76
2021/05/31 04:58:28;;;;;;;;;;;;;;;20.24;46.92;100573.34;1682967;83;20297;-77
2021/05/31 05:00:54;;;;;;;;;;;;;;;20.21;46.84;100583.31;1675633;85;20301;-77
2021/05/31 05:03:21;;;;;;;;;;;;;;;20.21;46.81;100583.81;1680232;83;20337;-77
2021/05/31 05:05:48;;;;;;;;;;;;;;;20.27;46.41;100589.23;1686230;83;20281;-76
2021/05/31 05:08:29;;;;;;;;;;;;;;;;;;;;;
2021/05/31 05:10:51;;;;;;;;;;;;;;;20.27;46.44;100594.67;1657180;84;20358;-78
2021/05/31 05:13:17;;;;;;;;;;;;;;;20.27;46.13;100598.75;1674651;83;20198;-77
2021/05/31 05:15:43;;;;;;;;;;;;;;;20.25;46.16;100592.67;1684029;83;20303;-77
2021/05/31 05:18:10;;;;;;;;;;;;;;;20.26;46.25;100588.10;1678304;83;20677;-78
2021/05/31 05:20:36;;;;;;;;;;;;;;;20.25;46.24;100594.04;1671996;83;20453;-77
2021/05/31 05:23:04;;;;;;;;;;;;;;;20.25;46.40;100595.40;1677184;82;20333;-76
2021/05/31 05:25:31;;;;;;;;;;;;;;;20.25;46.39;100589.13;1670316;82;20317;-77
2021/05/31 05:27:57;;;;;;;;;;;;;;;20.24;46.32;100591.02;1670048;83;20312;-77
2021/05/31 05:30:25;;;;;;;;;;;;;;;20.24;46.26;100590.19;1664088;82;20973;-78
2021/05/31 05:32:52;;;;;;;;;;;;;;;20.23;46.25;100590.72;1675149;82;20267;-78
2021/05/31 05:35:27;;;;;;;;;;;;;;;20.23;46.10;100588.00;1674562;83;20261;-77
2021/05/31 05:48:28;;;;;;;;;;;;;;;20.35;45.40;100590.00;1686706;82;20187;-76
2021/05/31 05:51:04;;;;;;;;;;;;;;;20.34;45.51;100595.14;1677777;83;20172;-77
2021/05/31 05:53:20;;;;;;;;;;;;;;;20.35;45.40;100594.95;1675972;83;20294;-77
2021/05/31 05:55:46;;;;;;;;;;;;;;;20.34;45.56;100600.59;1679000;82;20278;-77
2021/05/31 05:58:14;;;;;;;;;;;;;;;20.25;45.73;100596.76;1682338;82;20177;-77
2021/05/31 06:00:40;;;;;;;;;;;;;;;20.23;45.80;100598.05;1690007;82;20337;-77
2021/05/31 06:03:06;;;;;;;;;;;;;;;20.21;45.58;100596.91;1679665;82;20217;-77
2021/05/31 06:05:37;;;;;;;;;;;;;;;20.21;45.52;100600.99;1654643;83;20249;-76
2021/05/31 06:08:07;;;;;;;;;;;;;;;20.19;45.51;100599.00;1669957;82;20229;-75
2021/05/31 06:10:33;;;;;;;;;;;;;;;20.21;45.46;100592.83;1676005;83;20240;-75
2021/05/31 06:12:59;;;;;;;;;;;;;;;20.17;45.31;100594.84;1678966;83;20234;-75
2021/05/31 06:15:26;;;;;;;;;;;;;;;20.22;45.26;100594.50;1672507;83;20249;-76
2021/05/31 06:17:53;;;;;;;;;;;;;;;20.19;45.60;100597.64;1640788;83;20219;-77
2021/05/31 06:20:19;;;;;;;;;;;;;;;20.17;45.49;100604.37;1681722;82;20250;-77
2021/05/31 06:22:48;;;;;;;;;;;;;;;20.12;45.26;100605.02;1681376;83;20706;-76
2021/05/31 06:25:15;;;;;;;;;;;;;;;20.15;44.98;100603.73;1679829;83;20148;-76
2021/05/31 06:27:41;;;;;;;;;;;;;;;20.14;44.97;100602.08;1665634;82;20229;-77
2021/05/31 06:30:08;;;;;;;;;;;;;;;20.15;45.03;100596.94;1684684;81;20331;-78
2021/05/31 06:32:34;;;;;;;;;;;;;;;20.16;45.13;100599.42;1685320;82;20214;-77
2021/05/31 06:35:00;;;;;;;;;;;;;;;20.17;45.33;100600.29;1679263;82;20241;-78
2021/05/31 06:37:27;;;;;;;;;;;;;;;20.19;45.39;100598.17;1680690;82;20201;-77
2021/05/31 06:40:02;;;;;;;;;;;;;;;20.21;45.41;100596.91;1687594;82;20257;-79
2021/05/31 06:42:26;;;;;;;;;;;;;;;20.23;45.46;100596.16;1675348;83;20268;-79
2021/05/31 06:44:53;;;;;;;;;;;;;;;20.26;45.48;100590.82;1678054;82;20257;-80
2021/05/31 06:47:19;;;;;;;;;;;;;;;20.28;45.74;100592.25;1648773;84;20249;-77
2021/05/31 06:49:50;;;;;;;;;;;;;;;20.30;46.05;100591.19;1680925;82;20223;-77
2021/05/31 06:52:21;;;;;;;;;;;;;;;20.31;46.23;100599.69;1676481;82;20213;-78
2021/05/31 06:54:49;;;;;;;;;;;;;;;20.31;46.29;100601.05;1660138;83;20325;-78
2021/05/31 06:57:15;;;;;;;;;;;;;;;20.28;46.38;100596.33;1676557;82;20177;-77
2021/05/31 06:59:41;;;;;;;;;;;;;;;20.25;46.29;100602.20;1671915;83;20190;-77
2021/05/31 07:02:13;;;;;;;;;;;;;;;20.32;46.11;100603.54;1678597;82;20251;-77
2021/05/31 07:04:39;;;;;;;;;;;;;;;20.35;46.08;100601.75;1650137;84;20196;-76
2021/05/31 07:07:07;;;;;;;;;;;;;;;20.37;46.11;100596.08;1649800;83;20206;-79
2021/05/31 07:09:35;;;;;;;;;;;;;;;20.38;46.15;100599.09;1676842;82;20232;-78
2021/05/31 07:12:01;;;;;;;;;;;;;;;20.37;46.23;100604.23;1674808;83;20318;-77
2021/05/31 07:14:34;;;;;;;;;;;;;;;20.37;45.94;100603.71;1679956;81;20276;-79
2021/05/31 07:17:01;;;;;;;;;;;;;;;20.36;45.71;100602.58;1677436;82;20301;-78
2021/05/31 07:19:27;;;;;;;;;;;;;;;20.35;45.77;100601.75;1640329;84;20291;-77
2021/05/31 07:21:58;;;;;;;;;;;;;;;20.36;45.77;100601.22;1643423;84;20235;-78
2021/05/31 07:24:24;;;;;;;;;;;;;;;20.35;45.65;100607.69;1679792;82;20214;-78
2021/05/31 07:26:53;;;;;;;;;;;;;;;20.35;45.65;100609.05;1655175;83;20313;-78
2021/05/31 07:29:19;;;;;;;;;;;;;;;20.34;45.61;100610.11;1678734;83;20357;-77
2021/05/31 07:31:45;;;;;;;;;;;;;;;20.34;45.44;100612.83;1679596;81;20245;-76
2021/05/31 07:34:11;;;;;;;;;;;;;;;20.34;45.46;100612.83;1682045;82;20206;-78
2021/05/31 07:36:48;;;;;;;;;;;;;;;20.33;45.57;100623.41;1686876;80;20321;-80
2021/05/31 07:39:13;;;;;;;;;;;;;;;20.35;45.62;100618.57;1659803;83;20297;-78
2021/05/31 07:41:39;;;;;;;;;;;;;;;20.37;45.64;100617.31;1685285;82;20261;-78
2021/05/31 07:44:09;;;;;;;;;;;;;;;20.42;45.77;100622.09;1680968;82;20654;-78
2021/05/31 07:46:41;;;;;;;;;;;;;;;20.43;45.51;100630.03;1645771;83;20318;-80
2021/05/31 07:49:08;;;;;;;;;;;;;;;20.44;45.06;100622.73;1681665;81;20209;-77
2021/05/31 07:51:43;;;;;;;;;;;;;;;20.43;45.15;100623.23;1685019;81;20233;-77
2021/05/31 07:54:24;;;;;;;;;;;;;;;20.44;45.32;100625.45;1682174;82;20182;-77
2021/05/31 07:56:52;;;;;;;;;;;;;;;20.45;45.42;100628.47;1663764;83;20786;-78
2021/05/31 07:59:20;;;;;;;;;;;;;;;20.45;45.07;100622.50;1679463;82;20206;-77
2021/05/31 08:01:46;;;;;;;;;;;;;;;20.49;45.05;100633.81;1682090;82;20242;-77
2021/05/31 08:04:28;;;;;;;;;;;;;;;20.52;44.92;100634.72;1683678;82;20292;-79
2021/05/31 08:06:55;;;;;;;;;;;;;;;20.52;44.73;100633.36;1684798;82;20274;-77
2021/05/31 08:09:31;;;;;;;;;;;;;;;20.56;44.65;100637.31;1658528;83;20217;-77
2021/05/31 08:11:51;;;;;;;;;;;;;;;20.56;44.53;100641.40;1682596;82;20608;-77
2021/05/31 08:14:30;;;;;;;;;;;;;;;20.55;44.43;100638.38;1675923;82;20308;-77
2021/05/31 08:17:20;;;;;;;;;;;;;;;;;;;;;
2021/05/31 08:19:44;;;;;;;;;;;;;;;20.58;44.16;100650.72;1633305;84;20284;-77
2021/05/31 08:22:41;;;;;;;;;;;;;;;20.57;44.29;100647.14;1626422;85;20194;-76
2021/05/31 08:25:00;;;;;;;;;;;;;;;20.57;44.25;100650.39;1607431;85;20312;-77
2021/05/31 08:27:35;;;;;;;;;;;;;;;20.54;44.02;100651.69;1678641;82;20180;-78
2021/05/31 08:30:09;;;;;;;;;;;;;;;20.49;44.00;100655.59;1620567;85;20259;-78
2021/05/31 08:32:58;;;;;;;;;;;;;;;20.48;44.13;100653.89;1620961;84;20278;-78
2021/05/31 08:35:37;;;;;;;;;;;;;;;20.47;44.28;100654.92;1622220;84;20262;-78
2021/05/31 08:38:26;;;;;;;;;;;;;;;20.48;44.54;100656.62;1642832;84;20318;-78
2021/05/31 08:41:29;;;;;;;;;;;;;;;20.51;44.50;100656.19;1673784;83;20312;-79
2021/05/31 08:43:56;;;;;;;;;;;;;;;20.54;44.26;100661.20;1620964;84;20185;-79
2021/05/31 08:46:22;;;;;;;;;;;;;;;20.54;44.16;100657.13;1641993;85;20187;-79
2021/05/31 08:48:49;;;;;;;;;;;;;;;20.54;44.02;100653.58;1641975;85;20274;-79
2021/05/31 08:51:17;;;;;;;;;;;;;;;20.52;43.96;100655.96;1696537;82;20727;-80
2021/05/31 08:53:43;;;;;;;;;;;;;;;20.51;43.92;100654.83;1694668;81;20245;-79
2021/05/31 08:56:11;;;;;;;;;;;;;;;20.51;43.69;100662.99;1658226;82;20777;-78
2021/05/31 08:58:38;;;;;;;;;;;;;;;20.49;43.48;100660.50;1667690;82;20278;-78
2021/05/31 09:01:04;;;;;;;;;;;;;;;20.47;43.27;100654.42;1681708;83;20245;-77
2021/05/31 09:03:30;;;;;;;;;;;;;;;20.47;43.41;100654.92;1674962;82;20252;-78
2021/05/31 09:06:09;;;;;;;;;;;;;;;20.45;43.43;100659.23;1679421;82;21047;-79
2021/05/31 09:08:45;;;;;;;;;;;;;;;20.44;43.46;100656.74;1680121;82;20254;-77
2021/05/31 09:11:18;;;;;;;;;;;;;;;20.45;43.50;100654.33;1679113;83;20234;-78
2021/05/31 09:13:48;;;;;;;;;;;;;;;20.43;43.44;100655.88;1681406;82;20213;-78
2021/05/31 09:16:24;;;;;;;;;;;;;;;20.44;43.46;100656.21;1683055;82;20360;-79
2021/05/31 09:19:12;;;;;;;;;;;;;;;20.44;43.59;100654.02;1663550;83;20236;-78
2021/05/31 09:21:41;;;;;;;;;;;;;;;20.46;43.68;100655.45;1679046;83;20614;-78
2021/05/31 09:24:19;;;;;;;;;;;;;;;20.48;43.79;100665.64;1679726;82;20221;-78
2021/05/31 09:27:00;;;;;;;;;;;;;;;20.53;43.65;100664.98;1689587;82;21046;-81
2021/05/31 09:29:29;;;;;;;;;;;;;;;20.51;43.56;100669.80;1687368;82;20269;-77
2021/05/31 09:32:10;;;;;;;;;;;;;;;20.52;43.41;100668.73;1676495;82;20251;-78
2021/05/31 09:34:54;;;;;;;;;;;;;;;20.50;43.25;100671.69;1679162;82;20244;-78
2021/05/31 09:37:22;;;;;;;;;;;;;;;20.51;43.25;100671.16;1676909;82;20199;-78
2021/05/31 09:39:58;;;;;;;;;;;;;;;20.51;43.04;100669.27;1673679;82;20321;-78
2021/05/31 09:42:37;;;;;;;;;;;;;;;20.51;42.94;100665.19;1658658;83;20237;-78
2021/05/31 09:45:09;;;;;;;;;;;;;;;20.53;42.82;100667.70;1668319;82;20278;-78
2021/05/31 09:47:35;;;;;;;;;;;;;;;20.52;42.73;100664.13;1636714;84;20704;-79
2021/05/31 09:50:28;;;;;;;;;;;;;;;20.54;42.66;100668.54;1640672;84;20217;-79
2021/05/31 09:53:05;;;;;;;;;;;;;;;20.55;42.53;100668.31;1639075;84;20801;-78
2021/05/31 09:55:41;;;;;;;;;;;;;;;20.53;42.21;100667.70;1613460;85;20256;-79
2021/05/31 09:58:18;;;;;;;;;;;;;;;20.51;41.80;100671.16;1616527;84;20268;-80
2021/05/31 10:01:00;;;;;;;;;;;;;;;20.50;41.68;100674.94;1638103;84;20233;-78
2021/05/31 10:03:50;;;;;;;;;;;;;;;20.49;41.93;100667.83;1639109;84;20281;-78
2021/05/31 10:06:14;;;;;;;;;;;;;;;20.51;42.09;100676.07;1666908;84;20313;-78
2021/05/31 10:08:40;;;;;;;;;;;;;;;20.54;41.79;100680.78;1639438;85;20772;-78
2021/05/31 10:11:11;;;;;;;;;;;;;;;20.58;41.73;100680.66;1665587;83;20265;-78
2021/05/31 10:13:41;;;;;;;;;;;;;;;20.61;41.91;100681.03;1706483;82;20218;-78
2021/05/31 10:16:09;;;;;;;;;;;;;;;20.66;41.92;100680.38;1702278;82;20263;-78
2021/05/31 10:18:40;;;;;;;;;;;;;;;20.67;41.66;100684.27;1702783;82;20294;-79
2021/05/31 10:21:08;;;;;;;;;;;;;;;20.66;41.29;100675.77;1707157;82;20409;-77
2021/05/31 10:23:34;;;;;;;;;;;;;;;20.66;41.48;100683.09;1703578;81;20335;-76
2021/05/31 10:26:03;;;;;;;;;;;;;;;20.67;41.82;100679.34;1709260;82;20288;-77
2021/05/31 10:28:31;;;;;;;;;;;;;;;20.68;41.84;100683.20;1702123;81;20803;-76
2021/05/31 10:31:05;;;;;;;;;;;;;;;20.70;41.92;100678.36;1675808;83;20213;-76
2021/05/31 10:33:37;;;;;;;;;;;;;;;20.70;42.07;100678.36;1679302;82;20471;-76
2021/05/31 10:36:17;;;;;;;;;;;;;;;20.72;42.06;100677.63;1670493;83;20608;-78
2021/05/31 10:38:47;;;;;;;;;;;;;;;20.74;41.96;100672.78;1681094;82;20242;-78
2021/05/31 10:41:15;;;;;;;;;;;;;;;20.76;41.71;100664.42;1676989;83;20619;-79
2021/05/31 10:43:43;;;;;;;;;;;;;;;20.75;41.51;100667.64;1672791;83;20500;-77
2021/05/31 10:46:16;;;;;;;;;;;;;;;20.75;41.56;100660.83;1678454;82;20281;-76
2021/05/31 10:48:46;;;;;;;;;;;;;;;20.76;41.42;100665.25;1681072;82;20218;-78
2021/05/31 10:51:31;;;;;;;;;;;;;;;20.75;41.58;100659.47;1680409;82;20314;-79
2021/05/31 10:54:15;;;;;;;;;;;;;;;20.77;41.68;100663.36;1684717;82;20246;-78
2021/05/31 10:56:48;;;;;;;;;;;;;;;20.82;41.82;100657.25;1661131;83;20217;-79
2021/05/31 10:59:19;;;;;;;;;;;;;;;20.82;41.93;100662.16;1680655;82;20277;-76
2021/05/31 11:01:45;;;;;;;;;;;;;;;20.82;42.16;100660.80;1678451;82;20271;-77
2021/05/31 11:04:24;;;;;;;;;;;;;;;20.85;41.94;100652.20;1672201;83;20645;-77
2021/05/31 11:06:51;;;;;;;;;;;;;;;20.83;41.79;100657.02;1680066;83;20625;-78
2021/05/31 11:09:24;;;;;;;;;;;;;;;20.84;42.00;100663.30;1684701;81;20682;-77
2021/05/31 11:11:56;;;;;;;;;;;;;;;20.85;41.97;100664.45;1684181;82;20250;-76
2021/05/31 11:14:38;;;;;;;;;;;;;;;20.88;41.49;100663.99;1688245;82;20168;-76
2021/05/31 11:17:16;;;;;;;;;;;;;;;20.89;41.21;100663.46;1677025;82;20608;-77
2021/05/31 11:19:47;;;;;;;;;;;;;;;20.90;41.21;100670.60;1677455;82;20261;-77
2021/05/31 11:22:15;;;;;;;;;;;;;;;20.90;41.49;100670.60;1665314;83;20717;-77
2021/05/31 11:24:43;;;;;;;;;;;;;;;20.90;41.27;100671.44;1680185;81;20700;-77
2021/05/31 11:27:10;;;;;;;;;;;;;;;20.92;40.87;100671.20;1682517;82;20771;-77
2021/05/31 11:29:36;;;;;;;;;;;;;;;20.92;40.64;100673.92;1659053;83;20907;-78
2021/05/31 11:32:04;;;;;;;;;;;;;;;20.91;40.32;100665.45;1681999;82;20265;-78
2021/05/31 11:34:30;;;;;;;;;;;;;;;20.92;40.16;100665.75;1682328;82;20277;-77
2021/05/31 11:36:57;;;;;;;;;;;;;;;20.93;40.43;100670.97;1678263;83;20257;-78
2021/05/31 11:39:24;;;;;;;;;;;;;;;20.95;40.25;100664.80;1676282;82;20221;-76
2021/05/31 11:41:53;;;;;;;;;;;;;;;20.97;40.29;100665.92;1681740;82;20230;-78
2021/05/31 11:44:29;;;;;;;;;;;;;;;20.99;40.12;100666.55;1682218;78;20340;-77
2021/05/31 11:47:00;;;;;;;;;;;;;;;21.00;40.03;100660.04;1683950;82;20305;-77
2021/05/31 11:49:28;;;;;;;;;;;;;;;21.00;40.01;100666.84;1682547;82;20613;-77
2021/05/31 11:52:02;;;;;;;;;;;;;;;21.01;39.80;100657.62;1681380;82;20162;-77
2021/05/31 11:54:30;;;;;;;;;;;;;;;21.04;39.73;100657.19;1680878;82;20206;-77
2021/05/31 11:57:00;;;;;;;;;;;;;;;21.04;39.76;100653.09;1680463;81;20140;-77
2021/05/31 11:59:31;;;;;;;;;;;;;;;21.04;39.76;100649.02;1651771;84;20189;-76
2021/05/31 12:01:58;;;;;;;;;;;;;;;21.04;39.57;100654.46;1683304;83;20208;-75
2021/05/31 12:04:25;;;;;;;;;;;;;;;21.07;39.96;100651.80;1682195;83;20188;-77
2021/05/31 12:07:00;;;;;;;;;;;;;;;21.07;39.82;100643.63;1689141;83;20205;-77
2021/05/31 12:09:26;;;;;;;;;;;;;;;21.08;40.08;100649.41;1683048;83;20263;-77
2021/05/31 12:11:54;;;;;;;;;;;;;;;21.08;40.06;100650.77;1684434;83;20225;-77
2021/05/31 12:14:21;;;;;;;;;;;;;;;21.03;40.12;100644.09;1686347;82;20199;-77
2021/05/31 12:16:59;;;;;;;;;;;;;;;21.00;40.30;100647.25;1683857;81;20548;-76
2021/05/31 12:19:28;;;;;;;;;;;;;;;20.98;40.74;100645.30;1685198;82;20262;-77
2021/05/31 12:22:13;;;;;;;;;;;;;;;20.96;40.71;100642.47;1671486;83;20252;-77
2021/05/31 12:24:40;;;;;;;;;;;;;;;20.94;40.77;100650.05;1661004;83;20248;-76
2021/05/31 12:27:08;;;;;;;;;;;;;;;20.92;40.73;100642.08;1633837;83;20271;-78
2021/05/31 12:29:39;;;;;;;;;;;;;;;20.90;40.84;100642.84;1668425;82;20263;-77
2021/05/31 12:32:14;;;;;;;;;;;;;;;20.90;40.69;100642.02;1678009;83;20572;-79
2021/05/31 12:34:41;;;;;;;;;;;;;;;20.91;40.64;100645.86;1682569;83;20239;-77
2021/05/31 12:37:09;;;;;;;;;;;;;;;20.92;40.72;100642.08;1692506;81;20224;-76
2021/05/31 12:39:44;;;;;;;;;;;;;;;21.04;40.44;100642.20;1690624;81;20268;-75
2021/05/31 12:42:15;;;;;;;;;;;;;;;21.11;40.26;100634.79;1695447;81;20275;-78
2021/05/31 12:44:41;;;;;;;;;;;;;;;21.05;40.56;100643.86;1684601;82;20288;-78
2021/05/31 12:47:10;;;;;;;;;;;;;;;21.00;41.10;100639.62;1688428;82;20189;-78
2021/05/31 12:49:50;;;;;;;;;;;;;;;21.00;41.36;100640.45;1691367;82;20157;-76
2021/05/31 12:52:28;;;;;;;;;;;;;;;21.00;41.50;100642.34;1683354;82;20247;-79
2021/05/31 12:55:16;;;;;;;;;;;;;;;21.01;41.61;100644.00;1682188;82;20187;-76
2021/05/31 12:57:41;;;;;;;;;;;;;;;21.00;41.37;100636.36;1686752;82;20292;-77
2021/05/31 13:00:19;;;;;;;;;;;;;;;21.00;41.54;100639.62;1685276;82;20214;-76
2021/05/31 13:03:01;;;;;;;;;;;;;;;20.97;41.38;100635.97;1678201;82;20183;-76
2021/05/31 13:05:30;;;;;;;;;;;;;;;20.99;40.96;100624.34;1689251;82;20695;-77
2021/05/31 13:07:57;;;;;;;;;;;;;;;20.93;41.09;100633.37;1691197;81;20594;-78